Airfield :
LOGIN :

Register | Disclaimer

   EN    FR    IT 

 










Legend :    VFR   Marginal VFR   IFR   Intensive IFR   Very Intensive IFR
Visi :
Ceiling :
>= 8 km
>= 3000ft
5 to 8 km
1000 to 3000 ft
1500m to 5 km
500 to 1000 ft
800 to 1500m
200 to 500 ft
< 800m
< 200 ft
Symbols :   Thunderstorms  Fog  Heavy snow  Heavy precipitations  Wind > 20 kt
SIGMETs :     Misc.  Thunderstorms  Icing  Turbulence  Mountain Waves  Volcanic Ashes






- Airport Elevation : 21 ft
- IATA code : VST


ESOW - Stockholm Västerås

CURRENT METAR :
  • 191150Z AUTO 34005KT 320V020 9999 NCD 16/03 Q1024

EXPIRED METARs :
  • 191120Z AUTO 35006KT 270V050 9999 NCD 16/03 Q1024
  • 191050Z AUTO 35007KT 300V040 9999 NCD 15/02 Q1024
  • 191020Z AUTO VRB04KT 9999 NCD 15/02 Q1025
  • 190950Z AUTO 33004KT 230V030 9999 NCD 14/02 Q1025

Expired Forecast.



MET'MAP, your aeronautical weather chart ! - Copyright ORBIFLY December 2007 - Disclaimer

ORBIFLY MET'MAP TEAM :

Programming & Development : Alexandra Zaïnal
Concept & original design : Baudouin d'Aumeries
Assistance for programming : Marc-Olivier Méhu
Technical & hardware support : Manuel Goepfert

Contact : metmap@orbifly.com




SOURCES & CREDITS :

   NOAA